Time;durP1;ratioP1;P1;durP2;ratioP2;P2;SDS_P1;SDS_P2;PMS_P1;PMS_P2;Temp;Humidity;BMP_temperature;BMP_pressure;BME280_temperature;BME280_humidity;BME280_pressure;Samples;Min_cycle;Max_cycle;Signal;HPM_P1;HPM_P2
2022/11/21 00:04:39;;;;;;;0.10;0.10;;;;;;;-3.60;100.00;100489.38;10521383;28;20066;-78
2022/11/21 00:10:54;;;;;;;0.10;0.10;;;;;;;-3.66;100.00;100480.09;10453256;28;20112;-78
2022/11/21 00:17:05;;;;;;;0.10;0.10;;;;;;;-3.64;100.00;100485.22;10418683;28;20052;-79
2022/11/21 00:23:07;;;;;;;0.10;0.10;;;;;;;-3.71;100.00;100487.28;10471444;28;20041;-78
2022/11/21 00:28:48;;;;;;;0.10;0.10;;;;;;;-3.72;100.00;100480.41;10508612;28;20036;-79
2022/11/21 00:35:08;;;;;;;0.10;0.10;;;;;;;-3.67;100.00;100481.00;10525883;28;20036;-79
2022/11/21 00:47:44;;;;;;;0.10;0.10;;;;;;;-3.72;100.00;100464.78;10486016;28;20084;-80
2022/11/21 00:54:07;;;;;;;0.10;0.10;;;;;;;-3.77;100.00;100464.16;10422310;28;20040;-79
2022/11/21 01:00:28;;;;;;;0.10;0.10;;;;;;;-3.80;100.00;100471.31;10438588;28;20033;-79
2022/11/21 01:06:39;;;;;;;0.10;0.10;;;;;;;-3.81;100.00;100472.19;10365670;28;20086;-79
2022/11/21 01:12:42;;;;;;;0.10;0.10;;;;;;;-3.82;100.00;100465.31;10311373;28;20030;-79
2022/11/21 01:18:43;;;;;;;0.13;0.13;;;;;;;-3.67;100.00;100462.78;10358440;28;20026;-79
2022/11/21 01:25:17;;;;;;;0.10;0.10;;;;;;;-3.46;100.00;100465.22;10312256;28;20035;-79
2022/11/21 01:31:19;;;;;;;0.10;0.10;;;;;;;-3.28;100.00;100464.28;10309791;28;20098;-79
2022/11/21 01:37:23;;;;;;;0.00;0.00;;;;;;;-3.31;100.00;100438.41;10299154;28;20037;-79
2022/11/21 02:02:01;;;;;;;0.10;0.10;;;;;;;-3.43;100.00;100454.66;10455560;28;20545;-79
2022/11/21 02:08:24;;;;;;;0.10;0.10;;;;;;;-3.45;100.00;100452.13;10262047;28;20096;-80
2022/11/21 02:14:31;;;;;;;0.20;0.20;;;;;;;-3.48;100.00;100460.09;10198541;29;20133;-79
2022/11/21 02:20:39;;;;;;;0.20;0.20;;;;;;;-3.59;100.00;100449.38;10191044;29;20032;-78
2022/11/21 02:26:29;;;;;;;0.17;0.17;;;;;;;-3.69;100.00;100441.22;10199085;29;20562;-80
2022/11/21 02:32:33;;;;;;;0.10;0.10;;;;;;;-3.72;100.00;100443.13;10205968;28;20027;-79
2022/11/21 02:38:52;;;;;;;0.20;0.20;;;;;;;-3.90;100.00;100450.06;10227825;29;20050;-79
2022/11/21 02:49:59;;;;;;;0.10;0.10;;;;;;;-4.11;100.00;100437.22;10142130;22;20068;-76
2022/11/21 02:55:00;;;;;;;0.10;0.10;;;;;;;-4.07;100.00;100440.53;10475677;28;20024;-77
2022/11/21 03:00:00;;;;;;;0.20;0.20;;;;;;;-4.06;100.00;100434.41;10452581;28;20031;-77
2022/11/21 03:05:01;;;;;;;0.10;0.10;;;;;;;-4.02;100.00;100422.06;10452797;28;20252;-77
2022/11/21 03:10:02;;;;;;;0.20;0.20;;;;;;;-4.00;100.00;100425.44;10451620;28;20274;-77
2022/11/21 03:15:03;;;;;;;0.08;0.08;;;;;;;-3.98;100.00;100426.22;10452295;28;20392;-77
2022/11/21 03:20:05;;;;;;;0.10;0.10;;;;;;;-3.99;100.00;100424.50;10442673;28;20036;-77
2022/11/21 03:25:06;;;;;;;0.10;0.10;;;;;;;-4.00;100.00;100425.44;10450753;28;20025;-77
2022/11/21 03:30:07;;;;;;;0.10;0.10;;;;;;;-4.03;100.00;100428.19;10450009;28;20029;-77
2022/11/21 03:35:07;;;;;;;0.10;0.10;;;;;;;-3.99;100.00;100420.16;10450809;28;20072;-76
2022/11/21 03:40:08;;;;;;;0.20;0.20;;;;;;;-3.92;100.00;100420.72;10449937;28;20037;-77
2022/11/21 03:45:09;;;;;;;0.20;0.20;;;;;;;-3.88;100.00;100430.88;10450977;28;20126;-77
2022/11/21 03:50:09;;;;;;;0.20;0.20;;;;;;;-3.85;100.00;100424.66;10448223;28;20029;-77
2022/11/21 03:55:10;;;;;;;0.10;0.10;;;;;;;-3.73;100.00;100434.44;10459605;28;20032;-76
2022/11/21 04:00:11;;;;;;;0.10;0.10;;;;;;;-3.69;100.00;100438.59;10457468;28;20128;-77
2022/11/21 04:05:11;;;;;;;0.20;0.20;;;;;;;-3.63;100.00;100437.44;10458926;28;20440;-77
2022/11/21 04:10:11;;;;;;;0.20;0.20;;;;;;;-3.58;100.00;100435.44;10458658;28;20111;-77
2022/11/21 04:15:12;;;;;;;0.10;0.10;;;;;;;-3.56;100.00;100437.97;10452846;28;20671;-77
2022/11/21 04:20:12;;;;;;;0.10;0.10;;;;;;;-3.61;100.00;100437.34;10455702;28;20295;-76
2022/11/21 04:25:12;;;;;;;0.10;0.10;;;;;;;-3.69;100.00;100436.00;10457166;28;20029;-77
2022/11/21 04:30:13;;;;;;;0.10;0.10;;;;;;;-3.79;100.00;100424.34;10457800;28;20108;-76
2022/11/21 04:35:13;;;;;;;0.10;0.10;;;;;;;-3.82;100.00;100428.88;10452544;28;20045;-76
2022/11/21 04:40:15;;;;;;;0.20;0.20;;;;;;;-3.97;100.00;100439.13;10458141;28;20029;-76
2022/11/21 04:45:16;;;;;;;0.10;0.10;;;;;;;-4.07;100.00;100434.44;10456646;28;20028;-77
2022/11/21 04:50:17;;;;;;;0.20;0.20;;;;;;;-4.15;100.00;100424.44;10455948;28;20033;-77
2022/11/21 04:55:19;;;;;;;0.10;0.10;;;;;;;-4.19;100.00;100417.69;10455389;28;20492;-77
2022/11/21 05:00:20;;;;;;;0.10;0.10;;;;;;;-4.24;100.00;100425.75;10446396;28;20065;-76
2022/11/21 05:05:20;;;;;;;0.10;0.10;;;;;;;-4.29;100.00;100425.13;10420447;28;20131;-76
2022/11/21 05:10:20;;;;;;;0.20;0.20;;;;;;;-4.39;100.00;100421.28;10445742;28;20033;-76
2022/11/21 05:15:21;;;;;;;0.20;0.20;;;;;;;-4.37;100.00;100435.03;10451765;28;20660;-78
2022/11/21 05:20:21;;;;;;;0.13;0.13;;;;;;;-4.36;100.00;100431.53;10439344;28;20275;-78
2022/11/21 05:25:22;;;;;;;0.20;0.20;;;;;;;-4.38;100.00;100429.00;10448190;28;20024;-78
2022/11/21 05:30:22;;;;;;;0.10;0.10;;;;;;;-4.33;100.00;100429.63;10455775;28;20024;-78
2022/11/21 05:35:22;;;;;;;0.10;0.10;;;;;;;-4.27;100.00;100436.28;10449718;28;20025;-78
2022/11/21 05:40:24;;;;;;;0.00;0.00;;;;;;;-4.27;100.00;100431.09;10446444;28;20207;-78
2022/11/21 05:45:24;;;;;;;0.20;0.20;;;;;;;-4.29;100.00;100430.31;10449219;28;20031;-77
2022/11/21 05:50:25;;;;;;;0.10;0.10;;;;;;;-4.30;100.00;100436.44;10452520;28;20517;-78
2022/11/21 05:55:25;;;;;;;0.20;0.20;;;;;;;-4.32;100.00;100443.47;10442396;28;20032;-78
2022/11/21 06:00:27;;;;;;;0.10;0.10;;;;;;;-4.32;100.00;100425.25;10449432;28;20089;-78
2022/11/21 06:05:28;;;;;;;0.10;0.10;;;;;;;-4.24;100.00;100428.34;10437644;28;20262;-78
2022/11/21 06:10:29;;;;;;;0.10;0.10;;;;;;;-4.23;100.00;100426.56;10438104;28;20124;-78
2022/11/21 06:15:29;;;;;;;0.10;0.10;;;;;;;-4.24;100.00;100424.91;10436860;28;20135;-78
2022/11/21 06:20:29;;;;;;;0.17;0.17;;;;;;;-4.23;100.00;100417.00;10458154;28;20052;-78
2022/11/21 06:25:30;;;;;;;0.17;0.17;;;;;;;-4.21;100.00;100414.34;10449044;28;20518;-78
2022/11/21 06:30:30;;;;;;;0.10;0.10;;;;;;;-4.20;100.00;100419.47;10453368;28;20422;-78
2022/11/21 06:35:30;;;;;;;0.05;0.05;;;;;;;-4.16;100.00;100418.41;10454375;28;20032;-78
2022/11/21 06:40:31;;;;;;;0.10;0.10;;;;;;;-4.13;100.00;100418.25;10437287;28;20399;-78
2022/11/21 06:45:32;;;;;;;0.17;0.17;;;;;;;-4.08;100.00;100419.78;10437143;28;20508;-78
2022/11/21 06:50:32;;;;;;;0.20;0.20;;;;;;;-4.05;100.00;100412.66;10444498;28;20503;-78
2022/11/21 06:55:32;;;;;;;0.10;0.10;;;;;;;-3.99;100.00;100411.50;10451719;28;20036;-78
2022/11/21 07:00:32;;;;;;;0.20;0.20;;;;;;;-3.93;100.00;100417.28;10446876;28;20260;-77
2022/11/21 07:05:33;;;;;;;0.20;0.20;;;;;;;-3.87;100.00;100427.38;10442481;28;20624;-77
2022/11/21 07:10:33;;;;;;;0.10;0.10;;;;;;;-3.80;100.00;100422.69;10430438;28;20260;-77
2022/11/21 07:15:34;;;;;;;0.20;0.20;;;;;;;-3.74;100.00;100418.94;10444794;28;20048;-77
2022/11/21 07:20:35;;;;;;;0.10;0.10;;;;;;;-3.68;100.00;100413.41;10438455;28;20278;-77
2022/11/21 07:25:35;;;;;;;0.10;0.10;;;;;;;-3.62;100.00;100428.72;10446956;28;20035;-77
2022/11/21 07:30:35;;;;;;;0.15;0.15;;;;;;;-3.54;100.00;100426.56;10449669;28;20690;-77
2022/11/21 07:35:36;;;;;;;0.13;0.13;;;;;;;-3.48;100.00;100433.22;10446813;28;20044;-77
2022/11/21 07:40:36;;;;;;;0.10;0.10;;;;;;;-3.49;100.00;100423.69;10454058;28;20028;-77
2022/11/21 07:45:37;;;;;;;0.10;0.10;;;;;;;-3.51;100.00;100433.38;10443751;28;20125;-77
2022/11/21 07:50:37;;;;;;;0.10;0.10;;;;;;;-3.50;100.00;100422.03;10445533;28;20480;-76
2022/11/21 07:55:37;;;;;;;0.10;0.10;;;;;;;-3.45;100.00;100427.84;10448154;28;20025;-77
2022/11/21 08:00:41;;;;;;;0.10;0.10;;;;;;;-3.44;100.00;100419.09;10432866;28;20318;-77
2022/11/21 08:05:43;;;;;;;0.10;0.10;;;;;;;-3.38;100.00;100417.94;10434829;28;20060;-77
2022/11/21 08:10:45;;;;;;;0.10;0.10;;;;;;;-3.22;100.00;100418.84;10448191;28;20142;-77
2022/11/21 08:15:46;;;;;;;0.10;0.10;;;;;;;-2.61;100.00;100432.91;10440870;28;20452;-76
2022/11/21 08:20:46;;;;;;;0.10;0.10;;;;;;;-2.09;100.00;100430.81;10446170;28;20286;-77
2022/11/21 08:25:46;;;;;;;0.10;0.10;;;;;;;-1.61;100.00;100407.16;10452528;28;20032;-77
2022/11/21 08:30:47;;;;;;;0.00;0.00;;;;;;;-1.22;100.00;100410.88;10444235;28;20059;-76
2022/11/21 08:35:47;;;;;;;0.08;0.08;;;;;;;-0.93;100.00;100404.72;10444747;28;20900;-76
2022/11/21 08:42:01;;;;;;;0.00;0.00;;;;;;;-0.66;100.00;100411.75;10445706;28;20340;-76
2022/11/21 08:46:08;;;;;;;0.00;0.00;;;;;;;-0.39;100.00;100409.13;10428211;28;20114;-77
2022/11/21 08:51:08;;;;;;;0.00;0.00;;;;;;;-0.14;100.00;100411.00;10443439;28;20154;-76
2022/11/21 08:56:08;;;;;;;0.00;0.00;;;;;;;-0.46;100.00;100402.63;10436502;28;20391;-77
2022/11/21 09:01:09;;;;;;;0.00;0.00;;;;;;;-0.54;100.00;100408.34;10436398;28;20104;-77
2022/11/21 09:06:09;;;;;;;0.10;0.10;;;;;;;0.21;100.00;100408.66;10433188;28;20021;-77
2022/11/21 09:11:10;;;;;;;0.00;0.00;;;;;;;0.65;100.00;100401.34;10443128;28;20036;-77
2022/11/21 09:21:29;;;;;;;0.00;0.00;;;;;;;0.92;100.00;100400.38;10441461;28;20775;-77
2022/11/21 09:26:30;;;;;;;0.00;0.00;;;;;;;0.72;100.00;100404.38;10440555;28;20047;-77
2022/11/21 09:31:30;;;;;;;0.00;0.00;;;;;;;0.49;100.00;100411.19;10424616;28;20037;-76
2022/11/21 09:36:30;;;;;;;0.00;0.00;;;;;;;0.14;100.00;100412.63;10446478;28;20287;-77
2022/11/21 09:41:51;;;;;;;0.00;0.00;;;;;;;-0.18;100.00;100414.75;10437499;28;20392;-77
2022/11/21 09:47:04;;;;;;;0.00;0.00;;;;;;;-0.29;100.00;100423.31;10437443;28;20028;-77
2022/11/21 09:52:05;;;;;;;0.10;0.10;;;;;;;-0.14;100.00;100421.47;10427044;28;20061;-77
2022/11/21 09:57:05;;;;;;;0.00;0.00;;;;;;;-0.08;100.00;100423.69;10439490;28;20029;-77
2022/11/21 10:02:15;;;;;;;0.00;0.00;;;;;;;-0.04;100.00;100406.84;10438586;28;20404;-77
2022/11/21 10:07:25;;;;;;;0.10;0.10;;;;;;;0.02;100.00;100408.22;10444669;28;20056;-77
2022/11/21 10:12:44;;;;;;;0.00;0.00;;;;;;;0.09;100.00;100399.03;10435277;28;20491;-77
2022/11/21 10:17:56;;;;;;;0.10;0.10;;;;;;;0.12;100.00;100397.97;10433788;28;20399;-77
2022/11/21 10:23:15;;;;;;;0.00;0.00;;;;;;;0.10;100.00;100384.97;10438716;28;20029;-77
2022/11/21 10:28:26;;;;;;;0.00;0.00;;;;;;;0.17;100.00;100388.84;10442506;28;20025;-77
2022/11/21 10:33:31;;;;;;;0.00;0.00;;;;;;;0.24;100.00;100389.28;10425341;28;20032;-77
2022/11/21 10:38:39;;;;;;;0.00;0.00;;;;;;;0.28;100.00;100389.91;10454953;28;20455;-78
2022/11/21 10:49:12;;;;;;;0.00;0.00;;;;;;;0.37;100.00;100371.78;10453218;28;20056;-78
2022/11/21 10:54:31;;;;;;;0.00;0.00;;;;;;;0.45;100.00;100360.78;10453687;28;20125;-78
2022/11/21 10:59:32;;;;;;;0.00;0.00;;;;;;;0.52;100.00;100359.41;10453718;28;20033;-78
2022/11/21 11:04:33;;;;;;;0.10;0.10;;;;;;;0.59;100.00;100360.66;10452991;28;20034;-78
2022/11/21 11:09:33;;;;;;;0.10;0.10;;;;;;;0.65;100.00;100346.28;10455605;28;20033;-78
2022/11/21 11:14:34;;;;;;;0.00;0.00;;;;;;;0.70;100.00;100351.19;10451814;28;20492;-78
2022/11/21 11:19:34;;;;;;;0.00;0.00;;;;;;;0.74;100.00;100343.03;10453454;28;20497;-78
2022/11/21 11:24:35;;;;;;;0.00;0.00;;;;;;;0.78;100.00;100336.59;10458457;28;20296;-79
2022/11/21 11:29:49;;;;;;;0.00;0.00;;;;;;;0.81;100.00;100336.38;10446152;28;20040;-77
2022/11/21 11:34:49;;;;;;;0.00;0.00;;;;;;;0.92;100.00;100342.66;10433301;28;20033;-77
2022/11/21 11:40:05;;;;;;;0.00;0.00;;;;;;;1.13;100.00;100341.13;10435438;28;20106;-77
2022/11/21 11:50:50;;;;;;;0.00;0.00;;;;;;;1.49;100.00;100332.38;10434690;28;20041;-77
2022/11/21 11:56:01;;;;;;;0.00;0.00;;;;;;;1.61;100.00;100319.28;10435511;28;20040;-77
2022/11/21 12:01:11;;;;;;;0.00;0.00;;;;;;;1.61;100.00;100312.25;10441268;28;20459;-77
2022/11/21 12:06:17;;;;;;;0.00;0.00;;;;;;;1.59;100.00;100301.03;10441045;28;20025;-77
2022/11/21 12:12:06;;;;;;;0.00;0.00;;;;;;;1.46;100.00;100289.78;10436862;28;20044;-77
2022/11/21 12:17:09;;;;;;;0.00;0.00;;;;;;;1.31;100.00;100283.88;10439234;28;20032;-77
2022/11/21 12:22:10;;;;;;;0.00;0.00;;;;;;;1.26;100.00;100276.34;10450646;28;20082;-77
2022/11/21 12:27:25;;;;;;;0.00;0.00;;;;;;;1.20;100.00;100263.66;10450324;28;20052;-77
2022/11/21 12:32:55;;;;;;;0.00;0.00;;;;;;;1.09;100.00;100267.06;10450467;28;20048;-77
2022/11/21 12:38:14;;;;;;;0.00;0.00;;;;;;;0.99;100.00;100266.09;10445259;28;20032;-77
2022/11/21 12:43:37;;;;;;;0.00;0.00;;;;;;;0.94;100.00;100251.63;10441051;28;20041;-77
2022/11/21 12:54:48;;;;;;;0.00;0.00;;;;;;;0.87;100.00;100241.59;10444789;28;20029;-77
2022/11/21 13:00:11;;;;;;;0.00;0.00;;;;;;;0.80;100.00;100231.66;10444386;28;20119;-77
2022/11/21 13:05:25;;;;;;;0.00;0.00;;;;;;;0.74;100.00;100230.31;10450089;28;20103;-77
2022/11/21 13:10:26;;;;;;;0.00;0.00;;;;;;;0.72;100.00;100237.44;10444640;28;20048;-77
2022/11/21 13:15:33;;;;;;;0.00;0.00;;;;;;;0.69;100.00;100227.16;10442204;28;20040;-77
2022/11/21 13:20:38;;;;;;;0.00;0.00;;;;;;;0.67;100.00;100216.81;10446744;28;20128;-77
2022/11/21 13:25:42;;;;;;;0.00;0.00;;;;;;;0.66;100.00;100212.50;10453548;28;20060;-77
2022/11/21 13:30:50;;;;;;;0.00;0.00;;;;;;;0.63;100.00;100217.13;10447271;28;20034;-77
2022/11/21 13:35:50;;;;;;;0.00;0.00;;;;;;;0.60;100.00;100210.31;10446481;28;20040;-77
2022/11/21 13:46:09;;;;;;;0.00;0.00;;;;;;;0.48;100.00;100207.75;10435205;28;20029;-76
2022/11/21 13:51:15;;;;;;;0.00;0.00;;;;;;;0.42;100.00;100202.00;10444933;28;20025;-77
2022/11/21 13:56:30;;;;;;;0.00;0.00;;;;;;;0.37;100.00;100206.72;10438456;28;20197;-76
2022/11/21 14:02:05;;;;;;;0.00;0.00;;;;;;;0.30;100.00;100209.91;10439611;28;20025;-77
2022/11/21 14:07:26;;;;;;;0.00;0.00;;;;;;;0.25;100.00;100202.34;10441936;28;20108;-77
2022/11/21 14:12:36;;;;;;;0.00;0.00;;;;;;;0.21;100.00;100200.91;10439861;28;20108;-77
2022/11/21 14:17:54;;;;;;;0.00;0.00;;;;;;;0.16;100.00;100200.38;10436832;28;20037;-77
2022/11/21 14:23:04;;;;;;;0.00;0.00;;;;;;;0.13;100.00;100197.97;10444118;28;20094;-78
2022/11/21 14:28:30;;;;;;;0.00;0.00;;;;;;;0.07;100.00;100203.66;10449463;28;20028;-78
2022/11/21 14:33:33;;;;;;;0.00;0.00;;;;;;;-0.03;100.00;100199.06;10444199;28;20036;-78
2022/11/21 14:38:40;;;;;;;0.10;0.10;;;;;;;-0.11;100.00;100185.66;10446896;28;20029;-78
2022/11/21 14:43:40;;;;;;;0.00;0.00;;;;;;;-0.13;100.00;100192.78;10445152;28;20040;-78
2022/11/21 14:48:41;;;;;;;0.00;0.00;;;;;;;-0.23;100.00;100202.22;10436190;28;20025;-78
2022/11/21 14:53:43;;;;;;;0.00;0.00;;;;;;;-0.31;100.00;100191.44;10441021;28;20041;-78
2022/11/21 14:58:43;;;;;;;0.00;0.00;;;;;;;-0.35;100.00;100187.34;10444712;28;20241;-78
2022/11/21 15:04:01;;;;;;;0.00;0.00;;;;;;;-0.44;100.00;100178.34;10446393;28;20091;-78
2022/11/21 15:09:01;;;;;;;0.00;0.00;;;;;;;-0.54;100.00;100178.13;10445009;28;20029;-78
2022/11/21 15:14:09;;;;;;;0.00;0.00;;;;;;;-0.66;100.00;100163.28;10444407;28;20037;-78
2022/11/21 15:19:10;;;;;;;0.00;0.00;;;;;;;-0.77;100.00;100150.06;10427859;28;20338;-78
2022/11/21 15:24:28;;;;;;;0.00;0.00;;;;;;;-0.82;100.00;100157.38;10441877;28;20025;-78
2022/11/21 15:29:29;;;;;;;0.00;0.00;;;;;;;-0.87;100.00;100162.06;10437530;28;20061;-77
2022/11/21 15:34:29;;;;;;;0.10;0.10;;;;;;;-0.89;100.00;100145.69;10442022;28;20029;-77
2022/11/21 15:39:31;;;;;;;0.10;0.10;;;;;;;-0.90;100.00;100139.63;10439860;28;20036;-77
2022/11/21 15:44:32;;;;;;;0.00;0.00;;;;;;;-0.89;100.00;100143.06;10444545;28;20056;-78
2022/11/21 15:49:32;;;;;;;0.00;0.00;;;;;;;-0.86;100.00;100127.16;10439668;28;20388;-77
2022/11/21 15:54:32;;;;;;;0.10;0.10;;;;;;;-0.81;100.00;100123.31;10448665;28;20029;-78
2022/11/21 15:59:33;;;;;;;0.00;0.00;;;;;;;-0.79;100.00;100123.19;10447442;28;20031;-78
2022/11/21 16:04:33;;;;;;;0.00;0.00;;;;;;;-0.87;100.00;100118.50;10448092;28;20270;-77
2022/11/21 16:09:34;;;;;;;0.10;0.10;;;;;;;-0.89;100.00;100114.31;10455573;28;20044;-79
2022/11/21 16:14:35;;;;;;;0.00;0.00;;;;;;;-0.78;100.00;100103.97;10464119;28;20518;-78
2022/11/21 16:19:35;;;;;;;0.03;0.03;;;;;;;-0.84;100.00;100107.81;10464185;28;20033;-77
2022/11/21 16:24:35;;;;;;;0.00;0.00;;;;;;;-1.04;100.00;100098.72;10462532;28;20075;-79
2022/11/21 16:29:36;;;;;;;0.10;0.10;;;;;;;-1.18;100.00;100088.34;10457214;28;20492;-77
2022/11/21 16:34:36;;;;;;;0.00;0.00;;;;;;;-1.31;100.00;100082.22;10458034;28;20468;-77
2022/11/21 16:39:36;;;;;;;0.10;0.10;;;;;;;-1.45;100.00;100062.28;10457006;28;20270;-77
2022/11/21 16:44:36;;;;;;;0.10;0.10;;;;;;;-1.60;100.00;100064.94;10456733;28;20422;-77
2022/11/21 16:49:41;;;;;;;0.10;0.10;;;;;;;-1.72;100.00;100064.88;10447373;28;20091;-77
2022/11/21 16:54:42;;;;;;;0.05;0.05;;;;;;;-1.78;100.00;100079.16;10456712;28;20399;-78
2022/11/21 16:59:42;;;;;;;0.00;0.00;;;;;;;-1.85;100.00;100094.41;10456291;28;20120;-77
2022/11/21 17:04:42;;;;;;;0.10;0.10;;;;;;;-1.83;100.00;100099.53;10456374;28;20426;-77
2022/11/21 17:09:42;;;;;;;0.00;0.00;;;;;;;-1.72;100.00;100101.44;10452576;28;20036;-77
2022/11/21 17:14:44;;;;;;;0.03;0.03;;;;;;;-1.64;100.00;100102.63;10455053;28;20033;-77
2022/11/21 17:19:44;;;;;;;0.10;0.10;;;;;;;-1.56;100.00;100112.59;10448684;28;20047;-77
2022/11/21 17:24:44;;;;;;;0.10;0.10;;;;;;;-1.52;100.00;100108.81;10455530;28;20035;-77
2022/11/21 17:29:45;;;;;;;0.00;0.00;;;;;;;-1.57;100.00;100103.09;10455115;28;20036;-77
2022/11/21 17:34:45;;;;;;;0.00;0.00;;;;;;;-1.65;100.00;100107.97;10455015;28;20029;-77
2022/11/21 17:39:45;;;;;;;0.10;0.10;;;;;;;-1.79;100.00;100113.22;10454970;28;20395;-77
2022/11/21 17:44:46;;;;;;;0.00;0.00;;;;;;;-1.82;100.00;100091.59;10455097;28;20021;-77
2022/11/21 17:49:46;;;;;;;0.00;0.00;;;;;;;-1.90;100.00;100095.63;10444026;28;20029;-77
2022/11/21 17:54:46;;;;;;;0.00;0.00;;;;;;;-2.03;100.00;100071.25;10454420;28;20026;-77
2022/11/21 17:59:46;;;;;;;0.10;0.10;;;;;;;-2.12;100.00;100064.84;10452872;28;20507;-77
2022/11/21 18:04:47;;;;;;;0.10;0.10;;;;;;;-2.17;100.00;100059.06;10450834;28;20021;-77
2022/11/21 18:09:47;;;;;;;0.10;0.10;;;;;;;-2.25;100.00;100054.31;10450137;28;20056;-78
2022/11/21 18:14:48;;;;;;;0.00;0.00;;;;;;;-2.29;100.00;100034.59;10457440;28;20436;-78
2022/11/21 18:19:48;;;;;;;0.03;0.03;;;;;;;-2.35;100.00;100046.25;10446433;28;20028;-78
2022/11/21 18:24:48;;;;;;;0.00;0.00;;;;;;;-2.39;100.00;100042.13;10455758;28;20259;-78
2022/11/21 18:29:49;;;;;;;0.10;0.10;;;;;;;-2.38;100.00;100037.78;10455931;28;20033;-78
2022/11/21 18:34:49;;;;;;;0.00;0.00;;;;;;;-2.45;100.00;100024.28;10455659;28;20758;-78
2022/11/21 18:39:49;;;;;;;0.00;0.00;;;;;;;-2.51;100.00;99998.59;10456595;28;20100;-78
2022/11/21 18:44:50;;;;;;;0.00;0.00;;;;;;;-2.61;100.00;99985.28;10461755;28;20043;-78
2022/11/21 18:49:50;;;;;;;0.00;0.00;;;;;;;-2.64;100.00;99955.97;10458099;28;20037;-79
2022/11/21 18:54:51;;;;;;;0.00;0.00;;;;;;;-2.67;100.00;99953.56;10468158;28;20029;-79
2022/11/21 18:59:51;;;;;;;0.10;0.10;;;;;;;-2.75;100.00;99952.25;10468700;28;20334;-78
2022/11/21 19:04:51;;;;;;;0.00;0.00;;;;;;;-2.80;100.00;99938.66;10468697;28;20036;-78
2022/11/21 19:09:52;;;;;;;0.00;0.00;;;;;;;-2.86;100.00;99938.22;10470073;28;20029;-78
2022/11/21 19:14:54;;;;;;;0.10;0.10;;;;;;;-2.92;100.00;99943.81;10470068;28;20733;-79
2022/11/21 19:19:54;;;;;;;0.10;0.10;;;;;;;-2.93;100.00;99927.34;10452951;28;20527;-78
2022/11/21 19:24:54;;;;;;;0.10;0.10;;;;;;;-2.94;100.00;99920.44;10450721;28;20036;-78
2022/11/21 19:29:55;;;;;;;0.13;0.13;;;;;;;-2.98;100.00;99912.00;10450220;28;20040;-78
2022/11/21 19:34:55;;;;;;;0.10;0.10;;;;;;;-2.99;100.00;99927.72;10450514;28;20036;-77
2022/11/21 19:39:55;;;;;;;0.00;0.00;;;;;;;-2.99;100.00;99936.38;10448938;28;20263;-77
2022/11/21 19:44:57;;;;;;;0.03;0.03;;;;;;;-2.99;100.00;99927.72;10450719;28;20025;-78
2022/11/21 19:49:57;;;;;;;0.10;0.10;;;;;;;-3.09;100.00;99934.41;10440801;28;20040;-78
2022/11/21 19:54:57;;;;;;;0.10;0.10;;;;;;;-3.10;100.00;99930.16;10450827;28;20044;-78
2022/11/21 19:59:58;;;;;;;0.10;0.10;;;;;;;-3.07;100.00;99937.78;10449495;28;20029;-78
2022/11/21 20:04:58;;;;;;;0.15;0.15;;;;;;;-3.00;100.00;99926.88;10450118;28;20499;-78
2022/11/21 20:09:58;;;;;;;0.00;0.00;;;;;;;-2.93;100.00;99942.16;10449648;28;20369;-77
2022/11/21 20:14:58;;;;;;;0.10;0.10;;;;;;;-2.97;100.00;99926.72;10448319;28;20403;-78
2022/11/21 20:19:59;;;;;;;0.10;0.10;;;;;;;-2.93;100.00;99919.53;10440795;28;20032;-78
2022/11/21 20:24:59;;;;;;;0.20;0.20;;;;;;;-2.91;100.00;99914.22;10450273;28;20025;-78
2022/11/21 20:29:59;;;;;;;0.10;0.10;;;;;;;-2.94;100.00;99925.66;10449225;28;20268;-78
2022/11/21 20:35:00;;;;;;;0.10;0.10;;;;;;;-2.86;100.00;99941.66;10453818;28;20028;-78
2022/11/21 20:40:00;;;;;;;0.10;0.10;;;;;;;-2.86;100.00;99938.22;10455836;28;20256;-78
2022/11/21 20:45:00;;;;;;;0.20;0.20;;;;;;;-2.88;100.00;99938.34;10457152;28;20074;-78
2022/11/21 20:50:01;;;;;;;0.10;0.10;;;;;;;-2.96;100.00;99938.78;10446648;28;20274;-78
2022/11/21 20:55:01;;;;;;;0.20;0.20;;;;;;;-2.98;100.00;99929.41;10456301;28;20329;-78
2022/11/21 21:00:01;;;;;;;0.10;0.10;;;;;;;-2.99;100.00;99923.34;10455580;28;20420;-78
2022/11/21 21:05:02;;;;;;;0.13;0.13;;;;;;;-2.93;100.00;99926.50;10456678;28;20267;-78
2022/11/21 21:10:03;;;;;;;0.10;0.10;;;;;;;-2.96;100.00;99923.16;10457908;28;20021;-78
2022/11/21 21:15:04;;;;;;;0.10;0.10;;;;;;;-2.93;100.00;99914.31;10455367;28;20634;-77
2022/11/21 21:20:05;;;;;;;0.10;0.10;;;;;;;-2.94;100.00;99888.34;10445010;28;20032;-78
2022/11/21 21:25:06;;;;;;;0.20;0.20;;;;;;;-2.93;100.00;99877.84;10454313;28;20032;-77
2022/11/21 21:30:07;;;;;;;0.05;0.05;;;;;;;-2.94;100.00;99889.16;10448496;28;20128;-77
2022/11/21 21:35:08;;;;;;;0.10;0.10;;;;;;;-2.97;100.00;99897.19;10453901;28;20499;-77
2022/11/21 21:40:09;;;;;;;0.10;0.10;;;;;;;-3.01;100.00;99906.97;10452494;28;20021;-77
2022/11/21 21:45:09;;;;;;;0.10;0.10;;;;;;;-3.11;100.00;99898.06;10452007;28;20025;-77
2022/11/21 21:50:10;;;;;;;0.10;0.10;;;;;;;-3.17;100.00;99887.16;10441695;28;20029;-77
2022/11/21 21:55:10;;;;;;;0.00;0.00;;;;;;;-3.18;100.00;99881.13;10451171;28;20112;-77
2022/11/21 22:00:11;;;;;;;0.00;0.00;;;;;;;-3.14;100.00;99895.66;10448282;28;20656;-77
2022/11/21 22:05:11;;;;;;;0.10;0.10;;;;;;;-3.04;100.00;99883.72;10449711;28;20499;-78
2022/11/21 22:10:12;;;;;;;0.10;0.10;;;;;;;-2.88;100.00;99867.97;10448920;28;20036;-77
2022/11/21 22:15:12;;;;;;;0.10;0.10;;;;;;;-2.74;100.00;99880.09;10448712;28;20033;-77
2022/11/21 22:20:12;;;;;;;0.00;0.00;;;;;;;-2.60;100.00;99876.63;10439806;28;20025;-77
2022/11/21 22:25:13;;;;;;;0.00;0.00;;;;;;;-2.53;100.00;99890.91;10449333;28;20029;-77
2022/11/21 22:30:13;;;;;;;0.00;0.00;;;;;;;-2.44;100.00;99887.75;10448496;28;20031;-77
2022/11/21 22:35:13;;;;;;;0.10;0.10;;;;;;;-2.41;100.00;99877.13;10448970;28;20351;-77
2022/11/21 22:40:14;;;;;;;0.00;0.00;;;;;;;-2.35;100.00;99871.50;10448851;28;20262;-77
2022/11/21 22:45:14;;;;;;;0.00;0.00;;;;;;;-2.33;100.00;99856.59;10447236;28;20258;-77
2022/11/21 22:50:15;;;;;;;0.00;0.00;;;;;;;-2.32;100.00;99837.38;10443503;28;20040;-78
2022/11/21 22:55:15;;;;;;;0.10;0.10;;;;;;;-2.31;100.00;99833.81;10451077;28;20044;-78
2022/11/21 23:00:16;;;;;;;0.00;0.00;;;;;;;-2.31;100.00;99840.81;10450241;28;20085;-78
2022/11/21 23:05:16;;;;;;;0.10;0.10;;;;;;;-2.32;100.00;99852.19;10450118;28;20596;-77
2022/11/21 23:10:17;;;;;;;0.10;0.10;;;;;;;-2.37;100.00;99847.28;10449664;28;20033;-78
2022/11/21 23:15:17;;;;;;;0.00;0.00;;;;;;;-2.37;100.00;99841.22;10447937;28;20043;-77
2022/11/21 23:20:17;;;;;;;0.03;0.03;;;;;;;-2.39;100.00;99841.31;10443603;28;20591;-77
2022/11/21 23:25:18;;;;;;;0.00;0.00;;;;;;;-2.43;100.00;99813.78;10446513;28;20695;-78
2022/11/21 23:30:18;;;;;;;0.00;0.00;;;;;;;-2.42;100.00;99815.44;10446798;28;20325;-77
2022/11/21 23:35:18;;;;;;;0.00;0.00;;;;;;;-2.46;100.00;99810.53;10447105;28;20075;-77
2022/11/21 23:40:19;;;;;;;0.10;0.10;;;;;;;-2.46;100.00;99805.31;10446598;28;20040;-77
2022/11/21 23:45:19;;;;;;;0.10;0.10;;;;;;;-2.47;100.00;99801.03;10446036;28;20410;-78
2022/11/21 23:50:20;;;;;;;0.00;0.00;;;;;;;-2.45;100.00;99800.00;10439000;28;20316;-77
2022/11/21 23:55:20;;;;;;;0.03;0.03;;;;;;;-2.43;100.00;99789.47;10447883;28;20025;-77
